Terminal Aerodrome Forecast
Issued by NWS Omaha/Valley, NE

Home | Current Version | Previous Version | Text Only | Print | Product List | Glossary On
Versions: 1 2 3 4 5 6 7 8 9 10 11 12 13 14 15 16 17 18 19 20 21 22 23 24 25 26 27 28 29 30 31 32 33 34 35 36 37 38
000
FTUS43 KOAX 251120
TAFOMA
TAF
KOMA 251120Z 2512/2612 05016G22KT 4SM BR OVC015
      TEMPO 2512/2516 1 1/2SM SHRA BR OVC003
     FM251800 03011KT P6SM OVC015
     FM252200 06007KT P6SM OVC050=

USA.gov is the U.S. government's official web portal to all federal, state and local government web resources and services.